Detall de PIREP

Printer-friendly versionPDF version

[2009/10/31 19:02:00]
Flight IATA:CT2308
Pilot Number:026
Company ICAO:CAT
Aircraft Type:DC85/A
PAX:136
Departing Airport: LIEA
Destination Airport: LIMJ
Alternate Airport:LIMF
Online: VATSIM
Route:IVORY AJO UM858 UNITA
Flight Level:FL260
No Slew and time accel
No pause
Crash detect
Detect pilot in Cockpit between each 30 and 45 minutes
19:02 Zero fuel Weight: 180027 Lbs, Fuel Weight: 19986 Lbs
19:02 VATSIM:LIEA 311820Z 23001KT CAVOK 14/12 Q1023
19:02 VATSIM:LIMJ 311820Z 01009KT 7000 NSC 15/09 Q1024
19:03 VOICE CATALONIAN
19:08 Parking Brakes off
19:15 Take-off
19:15 Take off Weight: 199006 Lbs
19:15 Wind: 007º @ 003 Knots Heading: 022º
19:15 POS N40º 38´ 00´´ E008º 17´ 29´´
19:15 Gear Up: 171 Knots
19:15 Flaps:2 at 171 Knots
19:15 Flaps:1 at 186 Knots
19:19 Flaps:0 at 247 Knots
19:23 TOC
19:23 Fuel Weight: 15817 Lb
19:30 Wind:006º@012 Knots Heading: 014º Gro
und Speed: 447 Knots Altitude 26384 ft
19:36 TOD
19:36 Fuel Weight: 12709 Lb
19:45 Wind:006º@010 Knots Heading: 008º Ground Speed: 252 Knots Altitude 9370 ft
19:58 Flaps:1 at 210 Knots
19:59 Flaps:2 at 197 Knots
19:59 Flaps:3 at 197 Knots
20:00 Wind:018º@006 Knots Heading: 289º Ground Speed: 187 Knots Altitude 1781 ft
20:00 Flaps:4 at 184 Knots
20:00 Flaps:3 at 183 Knots
20:00 Gear Down: 182 Knots
20:00 Flaps:4 at 162 Knots
20:01 Flaps:5 at 144 Knots
20:02 TouchDown:Rate -682 ft/min Speed: 135 Knots
20:02 VATSIM:LIMJ 311920Z 01009KT 8000 NSC 14/08 Q1024
20:02 Land
20:02 Wind:018º@006 Knots
20:02 Heading: 286º
20:02 Flight Duration: 00:47
20:02 Landing Weight: 190535 Lbs
20:02 POS N44º 24´ 47´´ E008º 50´ 06´´
20:08 Parking brakes on
20:08 Block to Block Duration: 01:00
20:08 Final Fuel: 9761 Lbls
20:08 Spent Fuel: 10224 Lbls
20:08 Flight Length: 244
NM
20:08 TOD Land Length: 108 NM

Exportar CSV

Powered by Drupal - Modified by Danger4k